sensor_id;sensor_type;location;lat;lon;timestamp;pressure;altitude;pressure_sealevel;temperature;humidity
30073;BME280;16897;52.422;13.678;2023-04-06T00:01:10;101783.28;;;6.50;48.01
30073;BME280;16897;52.422;13.678;2023-04-06T00:05:12;101773.78;;;6.49;48.25
30073;BME280;16897;52.422;13.678;2023-04-06T00:09:13;101787.53;;;6.52;48.11
30073;BME280;16897;52.422;13.678;2023-04-06T00:13:15;101772.28;;;6.38;48.11
30073;BME280;16897;52.422;13.678;2023-04-06T00:17:17;101739.94;;;6.13;48.09
30073;BME280;16897;52.422;13.678;2023-04-06T00:21:18;101764.63;;;6.31;48.10
30073;BME280;16897;52.422;13.678;2023-04-06T00:25:20;101764.72;;;6.26;48.12
30073;BME280;16897;52.422;13.678;2023-04-06T00:29:22;101769.06;;;6.26;48.28
30073;BME280;16897;52.422;13.678;2023-04-06T00:33:24;101751.19;;;6.13;48.27
30073;BME280;16897;52.422;13.678;2023-04-06T00:37:26;101755.69;;;6.04;48.14
30073;BME280;16897;52.422;13.678;2023-04-06T00:41:28;101750.56;;;6.01;48.30
30073;BME280;16897;52.422;13.678;2023-04-06T00:45:30;101741.25;;;5.89;48.23
30073;BME280;16897;52.422;13.678;2023-04-06T00:49:32;101763.53;;;5.99;48.37
30073;BME280;16897;52.422;13.678;2023-04-06T00:53:34;101772.16;;;6.01;48.42
30073;BME280;16897;52.422;13.678;2023-04-06T00:57:37;101744.78;;;5.83;48.27
30073;BME280;16897;52.422;13.678;2023-04-06T01:01:39;101770.53;;;5.95;48.16
30073;BME280;16897;52.422;13.678;2023-04-06T01:05:55;101731.13;;;5.76;48.24
30073;BME280;16897;52.422;13.678;2023-04-06T01:10:05;101767.13;;;5.92;48.40
30073;BME280;16897;52.422;13.678;2023-04-06T01:14:09;101714.97;;;5.62;48.38
30073;BME280;16897;52.422;13.678;2023-04-06T01:18:27;101740.75;;;5.70;48.35
30073;BME280;16897;52.422;13.678;2023-04-06T01:22:41;101755.28;;;5.79;48.41
30073;BME280;16897;52.422;13.678;2023-04-06T01:26:44;101738.19;;;5.68;48.37
30073;BME280;16897;52.422;13.678;2023-04-06T01:30:47;101746.84;;;5.67;48.51
30073;BME280;16897;52.422;13.678;2023-04-06T01:35:00;101759.69;;;5.73;48.46
30073;BME280;16897;52.422;13.678;2023-04-06T01:39:03;101756.31;;;5.68;48.30
30073;BME280;16897;52.422;13.678;2023-04-06T01:43:10;101707.66;;;5.38;48.51
30073;BME280;16897;52.422;13.678;2023-04-06T01:47:24;101733.28;;;5.53;48.38
30073;BME280;16897;52.422;13.678;2023-04-06T01:51:27;101741.03;;;5.54;48.48
30073;BME280;16897;52.422;13.678;2023-04-06T01:55:35;101735.09;;;5.48;48.38
30073;BME280;16897;52.422;13.678;2023-04-06T01:59:54;101763.38;;;5.60;48.36
30073;BME280;16897;52.422;13.678;2023-04-06T02:04:14;101757.38;;;5.58;48.54
30073;BME280;16897;52.422;13.678;2023-04-06T02:08:18;101746.31;;;5.48;48.50
30073;BME280;16897;52.422;13.678;2023-04-06T02:12:21;101765.19;;;5.57;48.56
30073;BME280;16897;52.422;13.678;2023-04-06T02:16:23;101739.53;;;5.40;48.38
30073;BME280;16897;52.422;13.678;2023-04-06T02:20:25;101770.38;;;5.55;48.43
30073;BME280;16897;52.422;13.678;2023-04-06T02:24:26;101706.22;;;5.21;48.56
30073;BME280;16897;52.422;13.678;2023-04-06T02:28:28;101714.84;;;5.22;48.60
30073;BME280;16897;52.422;13.678;2023-04-06T02:32:30;101751.53;;;5.45;48.48
30073;BME280;16897;52.422;13.678;2023-04-06T02:36:32;101756.69;;;5.47;48.64
30073;BME280;16897;52.422;13.678;2023-04-06T02:40:34;101752.34;;;5.49;48.57
30073;BME280;16897;52.422;13.678;2023-04-06T02:44:46;101708.88;;;5.15;48.52
30073;BME280;16897;52.422;13.678;2023-04-06T02:48:48;101759.28;;;5.47;48.53
30073;BME280;16897;52.422;13.678;2023-04-06T02:52:52;101740.50;;;5.36;48.77
30073;BME280;16897;52.422;13.678;2023-04-06T02:56:53;101740.50;;;5.36;48.69
30073;BME280;16897;52.422;13.678;2023-04-06T03:00:56;101756.69;;;5.47;48.75
30073;BME280;16897;52.422;13.678;2023-04-06T03:04:58;101739.66;;;5.33;48.78
30073;BME280;16897;52.422;13.678;2023-04-06T03:09:06;101742.13;;;5.40;48.64
30073;BME280;16897;52.422;13.678;2023-04-06T03:13:08;101755.09;;;5.40;48.80
30073;BME280;16897;52.422;13.678;2023-04-06T03:17:28;101763.63;;;5.45;48.70
30073;BME280;16897;52.422;13.678;2023-04-06T03:21:35;101703.81;;;5.10;48.69
30073;BME280;16897;52.422;13.678;2023-04-06T03:25:37;101763.75;;;5.37;48.84
30073;BME280;16897;52.422;13.678;2023-04-06T03:29:43;101758.72;;;5.29;48.86
30073;BME280;16897;52.422;13.678;2023-04-06T03:33:49;101746.91;;;5.13;48.63
30073;BME280;16897;52.422;13.678;2023-04-06T03:37:57;101766.63;;;5.20;48.81
30073;BME280;16897;52.422;13.678;2023-04-06T03:42:00;101783.00;;;5.22;48.73
30073;BME280;16897;52.422;13.678;2023-04-06T03:46:08;101762.56;;;5.05;48.90
30073;BME280;16897;52.422;13.678;2023-04-06T03:50:09;101795.19;;;5.16;48.87
30073;BME280;16897;52.422;13.678;2023-04-06T03:54:11;101763.53;;;4.98;48.93
30073;BME280;16897;52.422;13.678;2023-04-06T03:58:13;101786.72;;;5.04;48.68
30073;BME280;16897;52.422;13.678;2023-04-06T04:02:15;101775.72;;;4.92;48.87
30073;BME280;16897;52.422;13.678;2023-04-06T04:06:17;101776.63;;;4.87;48.78
30073;BME280;16897;52.422;13.678;2023-04-06T04:10:18;101802.44;;;4.92;48.91
30073;BME280;16897;52.422;13.678;2023-04-06T04:14:21;101801.59;;;4.92;48.68
30073;BME280;16897;52.422;13.678;2023-04-06T04:18:23;101799.13;;;4.84;48.77
30073;BME280;16897;52.422;13.678;2023-04-06T04:22:25;101812.06;;;4.84;48.79
30073;BME280;16897;52.422;13.678;2023-04-06T04:26:28;101792.41;;;4.71;48.97
30073;BME280;16897;52.422;13.678;2023-04-06T04:30:30;101797.56;;;4.71;48.92
30073;BME280;16897;52.422;13.678;2023-04-06T04:34:32;101810.53;;;4.69;48.95
30073;BME280;16897;52.422;13.678;2023-04-06T04:38:34;101790.84;;;4.56;48.79
30073;BME280;16897;52.422;13.678;2023-04-06T04:42:37;101814.84;;;4.67;48.81
30073;BME280;16897;52.422;13.678;2023-04-06T04:46:41;101762.69;;;4.34;48.92
30073;BME280;16897;52.422;13.678;2023-04-06T04:50:44;101749.84;;;4.30;48.99
30073;BME280;16897;52.422;13.678;2023-04-06T04:54:45;101801.25;;;4.54;48.93
30073;BME280;16897;52.422;13.678;2023-04-06T04:58:56;101785.91;;;4.40;48.91
30073;BME280;16897;52.422;13.678;2023-04-06T05:02:59;101788.50;;;4.37;48.93
30073;BME280;16897;52.422;13.678;2023-04-06T05:07:07;101798.84;;;4.37;48.72
30073;BME280;16897;52.422;13.678;2023-04-06T05:11:11;101814.34;;;4.40;48.68
30073;BME280;16897;52.422;13.678;2023-04-06T05:15:18;101828.19;;;4.36;48.63
30073;BME280;16897;52.422;13.678;2023-04-06T05:19:20;101826.53;;;4.31;48.94
30073;BME280;16897;52.422;13.678;2023-04-06T05:23:22;101823.94;;;4.31;48.87
30073;BME280;16897;52.422;13.678;2023-04-06T05:27:25;101832.56;;;4.28;48.89
30073;BME280;16897;52.422;13.678;2023-04-06T05:31:29;101816.25;;;4.23;49.00
30073;BME280;16897;52.422;13.678;2023-04-06T05:35:30;101822.28;;;4.25;49.05
30073;BME280;16897;52.422;13.678;2023-04-06T05:39:37;101815.41;;;4.24;49.16
30073;BME280;16897;52.422;13.678;2023-04-06T05:43:38;101838.59;;;4.30;48.80
30073;BME280;16897;52.422;13.678;2023-04-06T05:47:40;101818.06;;;4.15;48.86
30073;BME280;16897;52.422;13.678;2023-04-06T05:51:53;101820.66;;;4.15;48.98
30073;BME280;16897;52.422;13.678;2023-04-06T05:55:55;101816.41;;;4.08;48.84
30073;BME280;16897;52.422;13.678;2023-04-06T05:59:57;101834.47;;;4.12;48.93
30073;BME280;16897;52.422;13.678;2023-04-06T06:04:03;101824.25;;;4.02;49.17
30073;BME280;16897;52.422;13.678;2023-04-06T06:08:07;101822.53;;;4.01;49.04
30073;BME280;16897;52.422;13.678;2023-04-06T06:12:10;101838.75;;;4.15;49.31
30073;BME280;16897;52.422;13.678;2023-04-06T06:16:11;101840.41;;;4.20;49.36
30073;BME280;16897;52.422;13.678;2023-04-06T06:20:18;101839.44;;;4.31;49.42
30073;BME280;16897;52.422;13.678;2023-04-06T06:24:20;101833.34;;;4.38;49.43
30073;BME280;16897;52.422;13.678;2023-04-06T06:28:22;101828.00;;;4.52;49.42
30073;BME280;16897;52.422;13.678;2023-04-06T06:32:26;101839.81;;;4.71;49.39
30073;BME280;16897;52.422;13.678;2023-04-06T06:36:29;101837.94;;;4.84;49.60
30073;BME280;16897;52.422;13.678;2023-04-06T06:40:33;101837.75;;;4.98;49.62
30073;BME280;16897;52.422;13.678;2023-04-06T06:44:37;101788.78;;;4.82;49.50
30073;BME280;16897;52.422;13.678;2023-04-06T06:48:39;101833.94;;;5.22;49.55
30073;BME280;16897;52.422;13.678;2023-04-06T06:52:41;101843.25;;;5.33;49.54
30073;BME280;16897;52.422;13.678;2023-04-06T06:56:43;101831.09;;;5.37;49.75
30073;BME280;16897;52.422;13.678;2023-04-06T07:00:46;101828.34;;;5.48;49.65
30073;BME280;16897;52.422;13.678;2023-04-06T07:04:48;101845.22;;;5.72;49.84
30073;BME280;16897;52.422;13.678;2023-04-06T07:08:51;101812.44;;;5.69;49.78
30073;BME280;16897;52.422;13.678;2023-04-06T07:12:53;101823.25;;;5.93;49.60
30073;BME280;16897;52.422;13.678;2023-04-06T07:16:54;101789.75;;;5.82;49.60
30073;BME280;16897;52.422;13.678;2023-04-06T07:20:56;101839.94;;;6.26;49.59
30073;BME280;16897;52.422;13.678;2023-04-06T07:24:58;101816.59;;;6.28;49.82
30073;BME280;16897;52.422;13.678;2023-04-06T07:29:00;101831.66;;;6.51;49.80
30073;BME280;16897;52.422;13.678;2023-04-06T07:33:02;101813.41;;;6.57;49.88
30073;BME280;16897;52.422;13.678;2023-04-06T07:37:04;101832.66;;;6.87;49.80
30073;BME280;16897;52.422;13.678;2023-04-06T07:41:08;101825.31;;;7.04;49.81
30073;BME280;16897;52.422;13.678;2023-04-06T07:45:10;101813.75;;;7.19;50.04
30073;BME280;16897;52.422;13.678;2023-04-06T07:49:12;101820.19;;;7.40;50.11
30073;BME280;16897;52.422;13.678;2023-04-06T07:53:13;101805.13;;;7.53;50.10
30073;BME280;16897;52.422;13.678;2023-04-06T07:57:15;101830.94;;;7.93;50.16
30073;BME280;16897;52.422;13.678;2023-04-06T08:01:17;101793.69;;;7.93;50.33
30073;BME280;16897;52.422;13.678;2023-04-06T08:05:18;101812.66;;;8.29;50.23
30073;BME280;16897;52.422;13.678;2023-04-06T08:09:20;101835.97;;;8.63;50.08
30073;BME280;16897;52.422;13.678;2023-04-06T08:13:21;101807.91;;;8.73;50.10
30073;BME280;16897;52.422;13.678;2023-04-06T08:17:23;101810.72;;;8.95;49.84
30073;BME280;16897;52.422;13.678;2023-04-06T08:21:24;101835.78;;;9.27;49.84
30073;BME280;16897;52.422;13.678;2023-04-06T08:25:26;101809.50;;;9.34;49.87
30073;BME280;16897;52.422;13.678;2023-04-06T08:29:28;101797.06;;;9.42;49.87
30073;BME280;16897;52.422;13.678;2023-04-06T08:33:29;101809.88;;;9.74;49.92
30073;BME280;16897;52.422;13.678;2023-04-06T08:37:32;101811.69;;;9.97;49.92
30073;BME280;16897;52.422;13.678;2023-04-06T08:41:34;101820.44;;;10.20;49.88
30073;BME280;16897;52.422;13.678;2023-04-06T08:45:35;101824.19;;;10.38;49.87
30073;BME280;16897;52.422;13.678;2023-04-06T08:49:37;101816.81;;;10.49;49.75
30073;BME280;16897;52.422;13.678;2023-04-06T08:53:40;101814.53;;;10.63;49.57
30073;BME280;16897;52.422;13.678;2023-04-06T08:57:42;101824.34;;;10.80;49.69
30073;BME280;16897;52.422;13.678;2023-04-06T09:01:44;101815.28;;;10.89;49.50
30073;BME280;16897;52.422;13.678;2023-04-06T09:05:46;101815.69;;;11.02;49.47
30073;BME280;16897;52.422;13.678;2023-04-06T09:09:48;101794.25;;;11.14;49.62
30073;BME280;16897;52.422;13.678;2023-04-06T09:13:54;101808.22;;;11.35;49.66
30073;BME280;16897;52.422;13.678;2023-04-06T09:17:56;101796.41;;;11.47;49.39
30073;BME280;16897;52.422;13.678;2023-04-06T09:22:04;101764.03;;;11.49;49.61
30073;BME280;16897;52.422;13.678;2023-04-06T09:26:16;101800.09;;;11.84;49.42
30073;BME280;16897;52.422;13.678;2023-04-06T09:30:18;101781.59;;;11.88;49.32
30073;BME280;16897;52.422;13.678;2023-04-06T09:34:21;101798.47;;;12.02;49.02
30073;BME280;16897;52.422;13.678;2023-04-06T09:38:24;101796.69;;;12.02;49.01
30073;BME280;16897;52.422;13.678;2023-04-06T09:42:26;101803.56;;;12.05;48.93
30073;BME280;16897;52.422;13.678;2023-04-06T09:46:27;101787.25;;;11.98;49.00
30073;BME280;16897;52.422;13.678;2023-04-06T09:50:31;101780.06;;;12.03;48.83
30073;BME280;16897;52.422;13.678;2023-04-06T09:54:34;101802.88;;;12.20;48.81
30073;BME280;16897;52.422;13.678;2023-04-06T09:58:36;101797.25;;;12.29;48.82
30073;BME280;16897;52.422;13.678;2023-04-06T10:06:47;101766.59;;;12.31;48.67
30073;BME280;16897;52.422;13.678;2023-04-06T10:10:54;101771.69;;;12.53;48.64
30073;BME280;16897;52.422;13.678;2023-04-06T10:14:57;101785.63;;;12.73;48.75
30073;BME280;16897;52.422;13.678;2023-04-06T10:19:13;101749.44;;;12.62;48.73
30073;BME280;16897;52.422;13.678;2023-04-06T10:23:36;101786.84;;;13.02;48.53
30073;BME280;16897;52.422;13.678;2023-04-06T10:27:38;101781.16;;;13.11;48.40
30073;BME280;16897;52.422;13.678;2023-04-06T10:31:42;101777.16;;;13.21;48.37
30073;BME280;16897;52.422;13.678;2023-04-06T10:35:44;101747.69;;;13.16;48.09
30073;BME280;16897;52.422;13.678;2023-04-06T10:39:55;101757.88;;;13.22;48.02
30073;BME280;16897;52.422;13.678;2023-04-06T10:44:00;101764.53;;;13.30;47.66
30073;BME280;16897;52.422;13.678;2023-04-06T10:48:13;101758.97;;;13.36;47.80
30073;BME280;16897;52.422;13.678;2023-04-06T10:52:15;101759.28;;;13.47;47.60
30073;BME280;16897;52.422;13.678;2023-04-06T10:56:17;101764.47;;;13.48;47.67
30073;BME280;16897;52.422;13.678;2023-04-06T11:00:22;101769.03;;;13.45;47.47
30073;BME280;16897;52.422;13.678;2023-04-06T11:04:24;101775.97;;;13.46;47.24
30073;BME280;16897;52.422;13.678;2023-04-06T11:08:33;101754.75;;;13.33;47.26
30073;BME280;16897;52.422;13.678;2023-04-06T11:12:35;101754.13;;;13.28;47.32
30073;BME280;16897;52.422;13.678;2023-04-06T11:16:37;101752.22;;;13.32;47.17
30073;BME280;16897;52.422;13.678;2023-04-06T11:20:39;101746.47;;;13.23;47.33
30073;BME280;16897;52.422;13.678;2023-04-06T11:24:41;101760.16;;;13.30;46.99
30073;BME280;16897;52.422;13.678;2023-04-06T11:28:43;101760.34;;;13.25;47.09
30073;BME280;16897;52.422;13.678;2023-04-06T11:32:45;101745.13;;;13.15;47.04
30073;BME280;16897;52.422;13.678;2023-04-06T11:36:48;101751.94;;;13.19;46.91
30073;BME280;16897;52.422;13.678;2023-04-06T11:40:54;101746.00;;;13.15;47.02
30073;BME280;16897;52.422;13.678;2023-04-06T11:44:56;101710.25;;;12.95;47.01
30073;BME280;16897;52.422;13.678;2023-04-06T11:48:59;101735.88;;;13.07;46.79
30073;BME280;16897;52.422;13.678;2023-04-06T11:53:01;101733.78;;;13.14;46.91
30073;BME280;16897;52.422;13.678;2023-04-06T11:57:04;101742.38;;;13.18;46.62
30073;BME280;16897;52.422;13.678;2023-04-06T12:01:06;101685.50;;;12.83;46.81
30073;BME280;16897;52.422;13.678;2023-04-06T12:05:08;101733.88;;;13.13;46.64
30073;BME280;16897;52.422;13.678;2023-04-06T12:09:09;101724.47;;;13.09;46.66
30073;BME280;16897;52.422;13.678;2023-04-06T12:13:11;101685.28;;;12.88;46.61
30073;BME280;16897;52.422;13.678;2023-04-06T12:17:12;101676.53;;;12.88;46.75
30073;BME280;16897;52.422;13.678;2023-04-06T12:21:14;101718.69;;;13.19;46.64
30073;BME280;16897;52.422;13.678;2023-04-06T12:25:16;101701.16;;;13.20;46.71
30073;BME280;16897;52.422;13.678;2023-04-06T12:29:17;101701.09;;;13.21;46.54
30073;BME280;16897;52.422;13.678;2023-04-06T12:33:19;101684.06;;;13.13;46.49
30073;BME280;16897;52.422;13.678;2023-04-06T12:37:20;101675.41;;;13.11;46.37
30073;BME280;16897;52.422;13.678;2023-04-06T12:41:22;101718.56;;;13.40;46.41
30073;BME280;16897;52.422;13.678;2023-04-06T12:45:24;101720.41;;;13.38;46.39
30073;BME280;16897;52.422;13.678;2023-04-06T12:49:26;101712.00;;;13.31;46.31
30073;BME280;16897;52.422;13.678;2023-04-06T12:53:27;101695.69;;;13.24;46.37
30073;BME280;16897;52.422;13.678;2023-04-06T12:57:29;101687.13;;;13.21;46.38
30073;BME280;16897;52.422;13.678;2023-04-06T13:01:31;101694.75;;;13.25;46.26
30073;BME280;16897;52.422;13.678;2023-04-06T13:05:34;101698.03;;;13.31;46.38
30073;BME280;16897;52.422;13.678;2023-04-06T13:09:35;101688.75;;;13.41;46.07
30073;BME280;16897;52.422;13.678;2023-04-06T13:13:37;101686.38;;;13.36;46.18
30073;BME280;16897;52.422;13.678;2023-04-06T13:17:38;101653.88;;;13.21;45.95
30073;BME280;16897;52.422;13.678;2023-04-06T13:21:40;101660.13;;;13.36;46.00
30073;BME280;16897;52.422;13.678;2023-04-06T13:25:42;101676.94;;;13.49;45.88
30073;BME280;16897;52.422;13.678;2023-04-06T13:29:43;101665.59;;;13.49;45.81
30073;BME280;16897;52.422;13.678;2023-04-06T13:33:45;101654.94;;;13.52;45.76
30073;BME280;16897;52.422;13.678;2023-04-06T13:37:47;101668.50;;;13.60;46.07
30073;BME280;16897;52.422;13.678;2023-04-06T13:41:49;101615.63;;;13.35;45.55
30073;BME280;16897;52.422;13.678;2023-04-06T13:45:52;101666.31;;;13.68;45.64
30073;BME280;16897;52.422;13.678;2023-04-06T13:49:55;101631.25;;;13.54;45.59
30073;BME280;16897;52.422;13.678;2023-04-06T13:53:57;101657.88;;;13.79;45.56
30073;BME280;16897;52.422;13.678;2023-04-06T13:57:59;101633.97;;;13.68;45.48
30073;BME280;16897;52.422;13.678;2023-04-06T14:02:05;101630.94;;;13.76;45.51
30073;BME280;16897;52.422;13.678;2023-04-06T14:06:13;101622.81;;;13.64;45.49
30073;BME280;16897;52.422;13.678;2023-04-06T14:10:14;101650.75;;;13.81;45.40
30073;BME280;16897;52.422;13.678;2023-04-06T14:14:16;101641.28;;;13.79;45.19
30073;BME280;16897;52.422;13.678;2023-04-06T14:18:18;101635.34;;;13.75;45.13
30073;BME280;16897;52.422;13.678;2023-04-06T14:22:20;101648.97;;;13.82;45.02
30073;BME280;16897;52.422;13.678;2023-04-06T14:26:21;101651.53;;;13.83;44.96
30073;BME280;16897;52.422;13.678;2023-04-06T14:30:23;101654.84;;;13.87;45.01
30073;BME280;16897;52.422;13.678;2023-04-06T14:34:26;101632.47;;;13.80;45.17
30073;BME280;16897;52.422;13.678;2023-04-06T14:38:27;101624.91;;;13.73;45.05
30073;BME280;16897;52.422;13.678;2023-04-06T14:42:29;101628.66;;;13.69;44.94
30073;BME280;16897;52.422;13.678;2023-04-06T14:46:34;101638.81;;;13.76;45.03
30073;BME280;16897;52.422;13.678;2023-04-06T14:50:35;101645.16;;;13.87;45.01
30073;BME280;16897;52.422;13.678;2023-04-06T14:54:37;101624.31;;;13.68;44.86
30073;BME280;16897;52.422;13.678;2023-04-06T14:58:38;101637.41;;;13.86;44.84
30073;BME280;16897;52.422;13.678;2023-04-06T15:02:40;101644.25;;;13.88;44.83
30073;BME280;16897;52.422;13.678;2023-04-06T15:06:44;101628.91;;;13.81;44.73
30073;BME280;16897;52.422;13.678;2023-04-06T15:10:45;101599.00;;;13.67;44.68
30073;BME280;16897;52.422;13.678;2023-04-06T15:14:47;101627.97;;;13.82;44.74
30073;BME280;16897;52.422;13.678;2023-04-06T15:18:48;101623.66;;;13.81;44.76
30073;BME280;16897;52.422;13.678;2023-04-06T15:22:50;101615.13;;;13.77;44.69
30073;BME280;16897;52.422;13.678;2023-04-06T15:26:51;101618.59;;;13.78;44.63
30073;BME280;16897;52.422;13.678;2023-04-06T15:30:53;101626.91;;;13.86;44.60
30073;BME280;16897;52.422;13.678;2023-04-06T15:34:58;101620.44;;;13.76;44.47
30073;BME280;16897;52.422;13.678;2023-04-06T15:39:00;101594.25;;;13.58;44.36
30073;BME280;16897;52.422;13.678;2023-04-06T15:43:02;101633.50;;;13.77;44.34
30073;BME280;16897;52.422;13.678;2023-04-06T15:47:03;101624.91;;;13.73;44.49
30073;BME280;16897;52.422;13.678;2023-04-06T15:51:04;101632.56;;;13.78;44.53
30073;BME280;16897;52.422;13.678;2023-04-06T15:55:07;101615.19;;;13.76;44.43
30073;BME280;16897;52.422;13.678;2023-04-06T15:59:09;101599.78;;;13.69;44.34
30073;BME280;16897;52.422;13.678;2023-04-06T16:03:10;101606.53;;;13.73;44.34
30073;BME280;16897;52.422;13.678;2023-04-06T16:07:11;101606.88;;;13.67;44.43
30073;BME280;16897;52.422;13.678;2023-04-06T16:11:13;101625.53;;;13.79;44.25
30073;BME280;16897;52.422;13.678;2023-04-06T16:15:14;101616.22;;;13.73;44.33
30073;BME280;16897;52.422;13.678;2023-04-06T16:19:16;101616.28;;;13.71;44.16
30073;BME280;16897;52.422;13.678;2023-04-06T16:23:17;101625.63;;;13.77;44.20
30073;BME280;16897;52.422;13.678;2023-04-06T16:27:19;101603.81;;;13.59;44.21
30073;BME280;16897;52.422;13.678;2023-04-06T16:31:22;101634.50;;;13.75;44.17
30073;BME280;16897;52.422;13.678;2023-04-06T16:35:23;101628.81;;;13.66;44.20
30073;BME280;16897;52.422;13.678;2023-04-06T16:39:26;101621.25;;;13.60;44.16
30073;BME280;16897;52.422;13.678;2023-04-06T16:43:28;101608.81;;;13.48;44.01
30073;BME280;16897;52.422;13.678;2023-04-06T16:47:29;101635.16;;;13.62;44.07
30073;BME280;16897;52.422;13.678;2023-04-06T16:51:31;101627.84;;;13.52;44.08
30073;BME280;16897;52.422;13.678;2023-04-06T16:55:32;101597.44;;;13.32;43.93
30073;BME280;16897;52.422;13.678;2023-04-06T16:59:34;101637.50;;;13.51;44.14
30073;BME280;16897;52.422;13.678;2023-04-06T17:03:35;101612.69;;;13.41;44.01
30073;BME280;16897;52.422;13.678;2023-04-06T17:07:36;101625.78;;;13.41;43.95
30073;BME280;16897;52.422;13.678;2023-04-06T17:11:38;101604.97;;;13.20;43.95
30073;BME280;16897;52.422;13.678;2023-04-06T17:15:39;101630.19;;;13.23;43.85
30073;BME280;16897;52.422;13.678;2023-04-06T17:19:43;101618.66;;;13.10;43.89
30073;BME280;16897;52.422;13.678;2023-04-06T17:23:45;101639.22;;;13.17;43.78
30073;BME280;16897;52.422;13.678;2023-04-06T17:27:46;101630.53;;;12.99;43.84
30073;BME280;16897;52.422;13.678;2023-04-06T17:31:48;101627.53;;;12.90;43.82
30073;BME280;16897;52.422;13.678;2023-04-06T17:35:50;101620.41;;;12.74;43.75
30073;BME280;16897;52.422;13.678;2023-04-06T17:39:52;101636.28;;;12.71;43.78
30073;BME280;16897;52.422;13.678;2023-04-06T17:43:54;101653.72;;;12.72;43.71
30073;BME280;16897;52.422;13.678;2023-04-06T17:47:55;101647.09;;;12.65;43.77
30073;BME280;16897;52.422;13.678;2023-04-06T17:51:57;101646.78;;;12.54;43.66
30073;BME280;16897;52.422;13.678;2023-04-06T17:56:05;101649.69;;;12.48;43.70
30073;BME280;16897;52.422;13.678;2023-04-06T18:00:07;101646.81;;;12.35;43.74
30073;BME280;16897;52.422;13.678;2023-04-06T18:04:08;101657.50;;;12.30;43.66
30073;BME280;16897;52.422;13.678;2023-04-06T18:08:10;101654.38;;;12.22;43.58
30073;BME280;16897;52.422;13.678;2023-04-06T18:12:12;101658.44;;;12.10;43.67
30073;BME280;16897;52.422;13.678;2023-04-06T18:16:14;101661.47;;;12.01;43.55
30073;BME280;16897;52.422;13.678;2023-04-06T18:20:17;101663.53;;;11.94;43.52
30073;BME280;16897;52.422;13.678;2023-04-06T18:24:18;101682.69;;;11.95;43.46
30073;BME280;16897;52.422;13.678;2023-04-06T18:28:20;101681.38;;;11.85;43.61
30073;BME280;16897;52.422;13.678;2023-04-06T18:32:21;101670.63;;;11.72;43.59
30073;BME280;16897;52.422;13.678;2023-04-06T18:36:22;101673.66;;;11.63;43.58
30073;BME280;16897;52.422;13.678;2023-04-06T18:40:37;101697.19;;;11.63;43.61
30073;BME280;16897;52.422;13.678;2023-04-06T18:44:38;101677.91;;;11.45;43.61
30073;BME280;16897;52.422;13.678;2023-04-06T18:48:40;101664.88;;;11.24;43.40
30073;BME280;16897;52.422;13.678;2023-04-06T18:52:42;101687.47;;;11.25;43.46
30073;BME280;16897;52.422;13.678;2023-04-06T18:56:45;101690.66;;;11.12;43.53
30073;BME280;16897;52.422;13.678;2023-04-06T19:00:47;101691.28;;;10.96;43.47
30073;BME280;16897;52.422;13.678;2023-04-06T19:04:48;101705.28;;;10.95;43.53
30073;BME280;16897;52.422;13.678;2023-04-06T19:08:49;101702.25;;;10.84;43.50
30073;BME280;16897;52.422;13.678;2023-04-06T19:12:51;101649.13;;;10.41;43.48
30073;BME280;16897;52.422;13.678;2023-04-06T19:16:53;101703.13;;;10.62;43.38
30073;BME280;16897;52.422;13.678;2023-04-06T19:20:54;101686.38;;;10.46;43.52
30073;BME280;16897;52.422;13.678;2023-04-06T19:24:55;101649.25;;;10.14;43.45
30073;BME280;16897;52.422;13.678;2023-04-06T19:28:57;101698.16;;;10.34;43.55
30073;BME280;16897;52.422;13.678;2023-04-06T19:32:59;101671.91;;;10.14;43.49
30073;BME280;16897;52.422;13.678;2023-04-06T19:37:00;101693.47;;;10.19;43.54
30073;BME280;16897;52.422;13.678;2023-04-06T19:41:03;101689.06;;;9.97;43.52
30073;BME280;16897;52.422;13.678;2023-04-06T19:45:05;101697.81;;;9.96;43.35
30073;BME280;16897;52.422;13.678;2023-04-06T19:49:06;101657.94;;;9.69;43.58
30073;BME280;16897;52.422;13.678;2023-04-06T19:53:08;101677.59;;;9.78;43.41
30073;BME280;16897;52.422;13.678;2023-04-06T19:57:10;101683.78;;;9.75;43.69
30073;BME280;16897;52.422;13.678;2023-04-06T20:01:11;101700.22;;;9.78;43.68
30073;BME280;16897;52.422;13.678;2023-04-06T20:05:15;101602.53;;;9.14;43.56
30073;BME280;16897;52.422;13.678;2023-04-06T20:09:17;101682.78;;;9.55;43.48
30073;BME280;16897;52.422;13.678;2023-04-06T20:13:18;101697.81;;;9.48;43.58
30073;BME280;16897;52.422;13.678;2023-04-06T20:17:21;101693.81;;;9.38;43.63
30073;BME280;16897;52.422;13.678;2023-04-06T20:21:22;101684.84;;;9.20;43.52
30073;BME280;16897;52.422;13.678;2023-04-06T20:25:24;101665.56;;;8.99;43.64
30073;BME280;16897;52.422;13.678;2023-04-06T20:29:25;101693.78;;;9.13;43.61
30073;BME280;16897;52.422;13.678;2023-04-06T20:33:28;101695.63;;;9.09;43.75
30073;BME280;16897;52.422;13.678;2023-04-06T20:37:30;101698.47;;;9.03;43.64
30073;BME280;16897;52.422;13.678;2023-04-06T20:41:31;101649.34;;;8.64;43.65
30073;BME280;16897;52.422;13.678;2023-04-06T20:45:35;101700.66;;;8.89;43.48
30073;BME280;16897;52.422;13.678;2023-04-06T20:49:38;101692.25;;;8.80;43.57
30073;BME280;16897;52.422;13.678;2023-04-06T20:53:39;101696.75;;;8.75;43.67
30073;BME280;16897;52.422;13.678;2023-04-06T20:57:41;101693.53;;;8.67;43.75
30073;BME280;16897;52.422;13.678;2023-04-06T21:01:42;101663.06;;;8.43;43.77
30073;BME280;16897;52.422;13.678;2023-04-06T21:05:51;101694.81;;;8.54;43.77